createdAt,value
2022-11-09T00:00:45.950Z,1.76
2022-11-09T00:03:47.957Z,1.76
2022-11-09T00:07:09.566Z,1.76
2022-11-09T00:10:27.355Z,1.76
2022-11-09T00:13:29.007Z,1.74
2022-11-09T00:16:30.945Z,1.70
2022-11-09T00:19:32.989Z,1.67
2022-11-09T00:22:34.767Z,1.65
2022-11-09T00:25:36.497Z,1.62
2022-11-09T00:28:38.196Z,1.60
2022-11-09T00:31:39.946Z,1.56
2022-11-09T00:34:41.597Z,1.51
2022-11-09T00:37:43.270Z,1.44
2022-11-09T00:40:44.856Z,1.23
2022-11-09T00:43:47.504Z,1.00
2022-11-09T00:46:49.433Z,0.82
2022-11-09T00:49:51.250Z,0.70
2022-11-09T00:52:53.148Z,0.56
2022-11-09T00:55:57.804Z,0.43
2022-11-09T00:58:59.498Z,0.40
2022-11-09T01:02:01.087Z,0.37
2022-11-09T01:05:02.934Z,0.41
2022-11-09T01:08:04.469Z,0.44
2022-11-09T01:11:08.023Z,0.45
2022-11-09T01:14:10.880Z,0.41
2022-11-09T01:17:12.530Z,0.40
2022-11-09T01:20:15.021Z,0.42
2022-11-09T01:23:18.441Z,0.45
2022-11-09T01:26:21.348Z,0.44
2022-11-09T01:29:23.046Z,0.40
2022-11-09T01:32:24.620Z,0.39
2022-11-09T01:35:26.398Z,0.32
2022-11-09T01:38:27.963Z,0.25
2022-11-09T01:41:29.701Z,0.25
2022-11-09T01:44:32.255Z,0.25
2022-11-09T01:47:34.828Z,0.19
2022-11-09T01:50:44.663Z,0.13
2022-11-09T01:53:48.625Z,0.08
2022-11-09T01:56:54.235Z,-0.05
2022-11-09T02:00:00.558Z,-0.10
2022-11-09T02:03:06.522Z,-0.12
2022-11-09T02:06:10.557Z,-0.12
2022-11-09T02:09:31.832Z,-0.17
2022-11-09T02:12:34.984Z,-0.15
2022-11-09T02:15:41.408Z,-0.10
2022-11-09T02:18:57.720Z,-0.07
2022-11-09T02:21:59.398Z,-0.02
2022-11-09T02:25:01.074Z,0.05
2022-11-09T02:28:02.990Z,0.09
2022-11-09T02:31:04.934Z,0.14
2022-11-09T02:34:13.757Z,0.17
2022-11-09T02:37:45.654Z,0.18
2022-11-09T02:40:50.313Z,0.11
2022-11-09T02:43:52.756Z,0.06
2022-11-09T02:46:54.378Z,-0.05
2022-11-09T02:49:58.004Z,-0.10
2022-11-09T02:52:59.625Z,-0.13
2022-11-09T02:56:02.331Z,-0.18
2022-11-09T02:59:04.187Z,-0.22
2022-11-09T03:02:05.722Z,-0.26
2022-11-09T03:05:07.949Z,-0.29
2022-11-09T03:08:09.565Z,-0.31
2022-11-09T03:11:11.233Z,-0.37
2022-11-09T03:14:12.854Z,-0.42
2022-11-09T03:17:14.512Z,-0.45
2022-11-09T03:20:16.262Z,-0.46
2022-11-09T03:23:18.163Z,-0.47
2022-11-09T03:26:20.598Z,-0.51
2022-11-09T03:29:22.316Z,-0.51
2022-11-09T03:32:24.479Z,-0.50
2022-11-09T03:35:26.334Z,-0.48
2022-11-09T03:38:27.918Z,-0.47
2022-11-09T03:41:29.613Z,-0.48
2022-11-09T03:44:31.485Z,-0.49
2022-11-09T03:47:33.133Z,-0.49
2022-11-09T03:50:40.482Z,-0.49
2022-11-09T03:53:42.195Z,-0.54
2022-11-09T03:56:43.944Z,-0.59
2022-11-09T03:59:45.502Z,-0.65
2022-11-09T04:02:47.533Z,-0.68
2022-11-09T04:05:49.265Z,-0.67
2022-11-09T04:08:51.811Z,-0.67
2022-11-09T04:11:53.503Z,-0.66
2022-11-09T04:14:55.138Z,-0.67
2022-11-09T04:18:01.775Z,-0.67
2022-11-09T04:21:03.527Z,-0.63
2022-11-09T04:24:05.777Z,-0.58
2022-11-09T04:27:07.471Z,-0.61
2022-11-09T04:30:09.568Z,-0.66
2022-11-09T04:33:11.244Z,-0.69
2022-11-09T04:36:12.878Z,-0.69
2022-11-09T04:39:14.604Z,-0.68
2022-11-09T04:42:16.236Z,-0.68
2022-11-09T04:45:18.163Z,-0.71
2022-11-09T04:48:19.657Z,-0.75
2022-11-09T04:51:21.474Z,-0.83
2022-11-09T04:54:23.236Z,-1.09
2022-11-09T04:57:24.793Z,-1.34
2022-11-09T05:00:27.365Z,-1.45
2022-11-09T05:03:29.045Z,-1.45
2022-11-09T05:06:33.664Z,-1.43
2022-11-09T05:09:35.322Z,-1.55
2022-11-09T05:12:37.046Z,-1.76
2022-11-09T05:15:39.417Z,-1.85
2022-11-09T05:18:41.078Z,-1.71
2022-11-09T05:21:42.814Z,-1.45
2022-11-09T05:24:44.322Z,-1.43
2022-11-09T05:27:45.896Z,-1.63
2022-11-09T05:30:47.717Z,-1.75
2022-11-09T05:33:51.269Z,-1.77
2022-11-09T05:36:52.963Z,-1.80
2022-11-09T05:39:54.538Z,-1.82
2022-11-09T05:42:56.781Z,-1.84
2022-11-09T05:46:02.442Z,-1.92
2022-11-09T05:49:07.156Z,-1.99
2022-11-09T05:52:08.800Z,-1.95
2022-11-09T05:55:10.652Z,-1.75
2022-11-09T05:58:12.354Z,-1.53
2022-11-09T06:01:16.986Z,-1.75
2022-11-09T06:04:18.713Z,-1.87
2022-11-09T06:07:20.396Z,-1.70
2022-11-09T06:10:22.279Z,-1.37
2022-11-09T06:13:23.958Z,-0.89
2022-11-09T06:16:25.742Z,-0.38
2022-11-09T06:19:27.288Z,-0.02
2022-11-09T06:22:29.193Z,0.07
2022-11-09T06:25:31.970Z,0.17
2022-11-09T06:28:34.122Z,0.47
2022-11-09T06:31:35.913Z,0.83
2022-11-09T06:34:37.557Z,0.86
2022-11-09T06:37:39.212Z,1.06
2022-11-09T06:40:40.845Z,1.27
2022-11-09T06:43:42.429Z,1.35
2022-11-09T06:46:44.117Z,1.43
2022-11-09T06:49:45.765Z,1.69
2022-11-09T06:52:47.430Z,1.87
2022-11-09T06:55:50.883Z,1.96
2022-11-09T06:58:52.850Z,2.10
2022-11-09T07:01:57.622Z,2.33
2022-11-09T07:05:03.137Z,2.59
2022-11-09T07:08:04.935Z,2.77
2022-11-09T07:11:16.285Z,2.97
2022-11-09T07:14:18.072Z,3.07
2022-11-09T07:17:19.572Z,3.16
2022-11-09T07:20:21.569Z,3.26
2022-11-09T07:23:23.614Z,3.37
2022-11-09T07:26:25.529Z,3.44
2022-11-09T07:29:27.139Z,3.42
2022-11-09T07:33:01.847Z,3.47
2022-11-09T07:35:50.613Z,3.64
2022-11-09T07:38:52.298Z,3.83
2022-11-09T07:41:55.522Z,4.12
2022-11-09T07:44:57.387Z,4.30
2022-11-09T07:48:01.352Z,4.63
2022-11-09T07:51:03.191Z,4.99
2022-11-09T07:54:04.825Z,4.97
2022-11-09T07:57:07.250Z,4.89
2022-11-09T08:00:10.360Z,4.87
2022-11-09T08:03:12.130Z,4.84
2022-11-09T08:06:18.238Z,4.77
2022-11-09T08:09:20.875Z,4.81
2022-11-09T08:12:22.538Z,4.93
2022-11-09T08:15:24.563Z,5.14
2022-11-09T08:18:26.207Z,5.45
2022-11-09T08:21:27.851Z,5.87
2022-11-09T08:24:30.036Z,6.29
2022-11-09T08:27:31.783Z,6.77
2022-11-09T08:30:35.338Z,7.22
2022-11-09T08:33:40.377Z,7.77
2022-11-09T08:36:42.313Z,8.55
2022-11-09T08:39:43.958Z,9.34
2022-11-09T08:42:46.027Z,10.13
2022-11-09T08:45:48.264Z,10.96
2022-11-09T08:48:49.890Z,11.60
2022-11-09T08:51:51.765Z,12.04
2022-11-09T08:54:53.380Z,12.66
2022-11-09T08:57:56.962Z,13.50
2022-11-09T09:00:58.839Z,14.27
2022-11-09T09:04:00.490Z,15.07
2022-11-09T09:07:02.284Z,15.85
2022-11-09T09:10:05.089Z,16.45
2022-11-09T09:13:06.785Z,16.89
2022-11-09T09:16:13.280Z,17.37
2022-11-09T09:19:14.956Z,17.52
2022-11-09T09:22:16.655Z,17.58
2022-11-09T09:25:18.410Z,17.06
2022-11-09T09:28:20.248Z,17.31
2022-11-09T09:31:22.221Z,17.39
2022-11-09T09:34:24.094Z,17.35
2022-11-09T09:37:25.976Z,17.17
2022-11-09T09:40:35.310Z,16.79
2022-11-09T09:43:46.664Z,17.34
2022-11-09T09:47:10.310Z,17.78
2022-11-09T09:50:16.126Z,18.13
2022-11-09T09:53:44.046Z,18.54
2022-11-09T09:56:47.459Z,18.74
2022-11-09T09:59:55.211Z,18.47
2022-11-09T10:02:56.874Z,18.23
2022-11-09T10:06:08.464Z,18.54
2022-11-09T10:09:39.457Z,19.13
2022-11-09T10:13:05.505Z,19.72
2022-11-09T10:16:26.203Z,19.76
2022-11-09T10:19:30.525Z,19.94
2022-11-09T10:22:59.702Z,20.05
2022-11-09T10:26:15.487Z,19.94
2022-11-09T10:29:43.463Z,19.53
2022-11-09T10:32:49.120Z,19.06
2022-11-09T10:36:24.006Z,18.73
2022-11-09T10:39:38.462Z,18.20
2022-11-09T10:42:45.247Z,17.72
2022-11-09T10:45:58.779Z,17.49
2022-11-09T10:49:19.530Z,17.20
2022-11-09T10:52:44.250Z,16.87
2022-11-09T10:56:08.982Z,16.56
2022-11-09T10:59:43.558Z,16.49
2022-11-09T11:02:46.711Z,16.31
2022-11-09T11:05:58.354Z,16.26
2022-11-09T11:09:05.911Z,16.23
2022-11-09T11:12:25.760Z,16.14
2022-11-09T11:15:39.734Z,16.07
2022-11-09T11:18:46.699Z,16.15
2022-11-09T11:22:09.260Z,16.17
2022-11-09T11:25:22.500Z,16.05
2022-11-09T11:28:42.864Z,16.05
2022-11-09T11:31:45.036Z,16.09
2022-11-09T11:35:00.288Z,16.07
2022-11-09T11:38:16.632Z,15.91
2022-11-09T11:41:54.162Z,15.74
2022-11-09T11:45:40.475Z,15.65
2022-11-09T11:48:43.380Z,15.60
2022-11-09T11:52:09.881Z,15.58
2022-11-09T11:55:29.883Z,15.60
2022-11-09T11:59:01.053Z,15.67
2022-11-09T12:02:21.220Z,15.66
2022-11-09T12:05:42.666Z,15.61
2022-11-09T12:09:02.741Z,15.61
2022-11-09T12:12:16.930Z,15.66
2022-11-09T12:15:38.140Z,15.67
2022-11-09T12:18:50.102Z,15.67
2022-11-09T12:21:58.205Z,15.73
2022-11-09T12:25:19.846Z,15.74
2022-11-09T12:28:39.854Z,15.77
2022-11-09T12:32:03.233Z,15.77
2022-11-09T12:35:22.422Z,15.83
2022-11-09T12:38:29.334Z,15.89
2022-11-09T12:41:35.299Z,15.96
2022-11-09T12:45:09.598Z,15.95
2022-11-09T12:48:30.582Z,15.97
2022-11-09T12:51:33.941Z,16.04
2022-11-09T12:54:37.047Z,16.08
2022-11-09T12:57:38.760Z,16.12
2022-11-09T13:00:44.402Z,16.03
2022-11-09T13:03:55.278Z,15.94
2022-11-09T13:07:09.073Z,15.87
2022-11-09T13:10:36.661Z,15.81
2022-11-09T13:13:38.442Z,15.77
2022-11-09T13:16:40.056Z,15.77
2022-11-09T13:19:42.098Z,15.75
2022-11-09T13:22:43.752Z,15.76
2022-11-09T13:25:51.004Z,15.78
2022-11-09T13:29:18.992Z,15.70
2022-11-09T13:32:20.702Z,15.45
2022-11-09T13:35:52.193Z,15.29
2022-11-09T13:39:39.267Z,15.16
2022-11-09T13:42:41.054Z,15.02
2022-11-09T13:45:56.142Z,14.92
2022-11-09T13:48:57.852Z,14.83
2022-11-09T13:51:59.681Z,14.75
2022-11-09T13:55:01.368Z,14.63
2022-11-09T13:58:23.805Z,14.46
2022-11-09T14:01:34.251Z,14.27
2022-11-09T14:04:43.768Z,14.14
2022-11-09T14:07:45.545Z,14.03
2022-11-09T14:11:00.336Z,13.97
2022-11-09T14:14:05.021Z,13.88
2022-11-09T14:17:18.989Z,13.74
2022-11-09T14:20:37.162Z,13.60
2022-11-09T14:23:39.078Z,13.43
2022-11-09T14:26:40.681Z,13.25
2022-11-09T14:29:49.993Z,13.11
2022-11-09T14:32:56.784Z,12.96
2022-11-09T14:36:00.179Z,12.76
2022-11-09T14:39:05.050Z,12.59
2022-11-09T14:42:07.396Z,12.41
2022-11-09T14:45:15.132Z,12.26
2022-11-09T14:48:19.287Z,12.09
2022-11-09T14:51:21.857Z,11.93
2022-11-09T14:54:25.627Z,11.76
2022-11-09T14:57:27.389Z,11.54
2022-11-09T15:00:34.792Z,11.36
2022-11-09T15:03:36.546Z,11.16
2022-11-09T15:06:53.501Z,10.97
2022-11-09T15:10:09.003Z,10.79
2022-11-09T15:13:10.898Z,10.62
2022-11-09T15:16:24.424Z,10.43
2022-11-09T15:19:31.739Z,10.20
2022-11-09T15:22:48.865Z,9.94
2022-11-09T15:25:51.723Z,9.75
2022-11-09T15:28:53.476Z,9.66
2022-11-09T15:32:00.625Z,9.58
2022-11-09T15:35:02.300Z,9.28
2022-11-09T15:38:04.183Z,9.16
2022-11-09T15:41:14.821Z,9.12
2022-11-09T15:44:17.353Z,9.11
2022-11-09T15:47:27.814Z,9.08
2022-11-09T15:50:29.443Z,9.03
2022-11-09T15:53:32.892Z,8.94
2022-11-09T15:56:34.787Z,8.75
2022-11-09T15:59:36.415Z,8.62
2022-11-09T16:02:38.124Z,8.47
2022-11-09T16:05:39.841Z,8.37
2022-11-09T16:08:41.532Z,8.29
2022-11-09T16:11:43.168Z,8.18
2022-11-09T16:14:44.925Z,8.05
2022-11-09T16:17:49.682Z,7.92
2022-11-09T16:20:51.265Z,7.79
2022-11-09T16:23:58.285Z,7.67
2022-11-09T16:27:00.793Z,7.51
2022-11-09T16:30:03.195Z,7.36
2022-11-09T16:33:04.834Z,7.20
2022-11-09T16:36:10.524Z,7.13
2022-11-09T16:39:18.501Z,7.01
2022-11-09T16:42:20.420Z,6.96
2022-11-09T16:45:22.148Z,6.78
2022-11-09T16:48:24.263Z,6.67
2022-11-09T16:51:26.034Z,6.64
2022-11-09T16:54:27.599Z,6.56
2022-11-09T16:57:29.283Z,6.45
2022-11-09T17:00:55.736Z,6.40
2022-11-09T17:03:52.406Z,6.36
2022-11-09T17:06:54.022Z,6.32
2022-11-09T17:09:55.720Z,6.27
2022-11-09T17:12:57.404Z,6.18
2022-11-09T17:16:04.390Z,6.08
2022-11-09T17:19:06.378Z,6.01
2022-11-09T17:22:08.066Z,5.95
2022-11-09T17:25:10.111Z,5.86
2022-11-09T17:28:11.704Z,5.85
2022-11-09T17:31:14.609Z,5.86
2022-11-09T17:34:16.282Z,5.83
2022-11-09T17:37:17.942Z,5.76
2022-11-09T17:40:21.486Z,5.71
2022-11-09T17:43:23.079Z,5.68
2022-11-09T17:46:24.949Z,5.65
2022-11-09T17:49:26.884Z,5.63
2022-11-09T17:52:28.796Z,5.54
2022-11-09T17:55:30.559Z,5.49
2022-11-09T17:58:32.264Z,5.39
2022-11-09T18:01:39.394Z,5.30
2022-11-09T18:04:42.364Z,5.23
2022-11-09T18:07:43.978Z,5.17
2022-11-09T18:10:45.752Z,5.06
2022-11-09T18:13:47.389Z,4.90
2022-11-09T18:16:49.035Z,4.67
2022-11-09T18:19:50.789Z,4.21
2022-11-09T18:22:53.781Z,3.82
2022-11-09T18:25:59.003Z,3.57
2022-11-09T18:29:00.667Z,3.43
2022-11-09T18:32:02.316Z,3.40
2022-11-09T18:35:04.330Z,3.29
2022-11-09T18:38:10.029Z,3.21
2022-11-09T18:41:20.515Z,3.19
2022-11-09T18:44:22.142Z,3.18
2022-11-09T18:47:25.512Z,3.16
2022-11-09T18:50:27.145Z,3.15
2022-11-09T18:53:34.524Z,3.18
2022-11-09T18:56:36.245Z,3.12
2022-11-09T18:59:40.880Z,3.16
2022-11-09T19:02:42.515Z,3.13
2022-11-09T19:05:44.358Z,3.08
2022-11-09T19:09:05.513Z,3.07
2022-11-09T19:12:08.714Z,2.98
2022-11-09T19:15:10.536Z,2.89
2022-11-09T19:18:12.173Z,2.84
2022-11-09T19:21:46.466Z,2.84
2022-11-09T19:24:48.428Z,2.96
2022-11-09T19:27:50.200Z,3.01
2022-11-09T19:30:51.804Z,3.10
2022-11-09T19:33:53.546Z,3.25
2022-11-09T19:36:55.566Z,3.37
2022-11-09T19:39:57.159Z,3.49
2022-11-09T19:42:58.972Z,3.57
2022-11-09T19:46:00.528Z,3.55
2022-11-09T19:49:03.939Z,3.55
2022-11-09T19:52:05.583Z,3.52
2022-11-09T19:55:07.624Z,3.48
2022-11-09T19:58:09.253Z,3.43
2022-11-09T20:01:12.267Z,3.24
2022-11-09T20:04:14.016Z,3.22
2022-11-09T20:07:15.739Z,3.15
2022-11-09T20:10:17.686Z,2.95
2022-11-09T20:13:20.108Z,2.82
2022-11-09T20:16:21.803Z,2.69
2022-11-09T20:19:24.711Z,2.64
2022-11-09T20:22:26.496Z,2.64
2022-11-09T20:25:28.245Z,2.74
2022-11-09T20:28:29.840Z,2.76
2022-11-09T20:31:31.521Z,2.58
2022-11-09T20:34:33.151Z,2.37
2022-11-09T20:37:34.835Z,2.22
2022-11-09T20:40:36.432Z,2.07
2022-11-09T20:43:38.712Z,1.96
2022-11-09T20:46:40.418Z,1.87
2022-11-09T20:49:42.244Z,1.80
2022-11-09T20:52:43.903Z,1.79
2022-11-09T20:55:45.489Z,1.78
2022-11-09T20:58:47.518Z,1.74
2022-11-09T21:01:49.222Z,1.65
2022-11-09T21:04:50.870Z,1.58
2022-11-09T21:07:52.621Z,1.51
2022-11-09T21:10:54.273Z,1.52
2022-11-09T21:13:56.462Z,1.55
2022-11-09T21:16:58.155Z,1.59
2022-11-09T21:19:59.756Z,1.43
2022-11-09T21:23:13.629Z,1.28
2022-11-09T21:26:34.291Z,1.19
2022-11-09T21:29:50.985Z,1.25
2022-11-09T21:32:52.830Z,1.34
2022-11-09T21:35:55.009Z,1.15
2022-11-09T21:38:56.685Z,0.88
2022-11-09T21:41:59.137Z,0.69
2022-11-09T21:45:00.796Z,0.63
2022-11-09T21:48:02.503Z,0.64
2022-11-09T21:51:23.095Z,0.73
2022-11-09T21:54:24.921Z,0.73
2022-11-09T21:57:26.704Z,0.55
2022-11-09T22:00:28.292Z,0.46
2022-11-09T22:03:30.053Z,0.61
2022-11-09T22:06:31.803Z,0.84
2022-11-09T22:09:57.774Z,0.74
2022-11-09T22:13:14.697Z,0.55
2022-11-09T22:16:17.399Z,0.53
2022-11-09T22:19:38.072Z,0.61
2022-11-09T22:22:39.704Z,0.61
2022-11-09T22:25:46.717Z,0.61
2022-11-09T22:28:49.745Z,0.62
2022-11-09T22:31:51.325Z,0.63
2022-11-09T22:34:52.992Z,0.63
2022-11-09T22:37:54.712Z,0.60
2022-11-09T22:40:59.368Z,0.54
2022-11-09T22:44:01.002Z,0.51
2022-11-09T22:47:02.661Z,0.64
2022-11-09T22:50:04.485Z,0.85
2022-11-09T22:53:06.052Z,0.86
2022-11-09T22:56:09.869Z,0.70
2022-11-09T22:59:11.560Z,0.62
2022-11-09T23:02:13.253Z,0.55
2022-11-09T23:05:15.078Z,0.50
2022-11-09T23:08:16.852Z,0.53
2022-11-09T23:11:22.160Z,0.55
2022-11-09T23:14:43.697Z,0.50
2022-11-09T23:18:04.247Z,0.40
2022-11-09T23:21:06.060Z,0.30
2022-11-09T23:24:28.083Z,0.26
2022-11-09T23:27:29.828Z,0.28
2022-11-09T23:30:31.769Z,0.35
2022-11-09T23:33:33.750Z,0.38
2022-11-09T23:36:35.370Z,0.41
2022-11-09T23:39:37.410Z,0.47
2022-11-09T23:42:39.120Z,0.50
2022-11-09T23:45:40.841Z,0.48
2022-11-09T23:48:42.456Z,0.45
2022-11-09T23:51:44.182Z,0.47
2022-11-09T23:54:46.364Z,0.58
2022-11-09T23:57:47.951Z,0.64
